Ludington, MI

4:51 AM EDT on October 21, 2019 (GMT -0400)
Mason County

Weather History for KLDM - August, 2019

Change the Weather History Date:

Tuesday, August 13, 2019

  Actual Average Record
Temperature  
Mean Temperature 70 °F -  
Max Temperature 79 °F 78 °F 96 °F (1988)
Min Temperature 60 °F 56 °F 43 °F (1982)
Cooling Degree Days 4    
Growing Degree Days 20 (Base 50)    
Moisture  
Dew Point 58 °F    
Average Humidity 69    
Maximum Humidity 95    
Minimum Humidity 40    
Precipitation  
Precipitation 0.00 in - - ()
Sea Level Pressure  
Sea Level Pressure 29.86 in    
Wind  
Wind Speed 3 mph (NNE)    
Max Wind Speed 13 mph    
Max Gust Speed 17 mph    
Visibility 10 miles    
Events      
Averages and records for this station are not official NWS values.
T = Trace of Precipitation, MM = Missing Value Source: NWS Daily Summary

Daily Weather History Graph

Daily Weather History Graph

Search for Another Location

Airport or City:

Astronomy

Aug. 13, 2019 Rise Set
Actual Time 6:47 AM EDT 8:53 PM EDT
Civil Twilight 6:15 AM EDT 9:24 PM EDT
Nautical Twilight 5:36 AM EDT 10:03 PM EDT
Astronomical Twilight 4:53 AM EDT 10:45 PM EDT
Moon 8:11 PM EDT (8/13) 4:43 AM EDT (8/13)
Length of Visible Light 15h 09m
Length of Day
14h 06m
Waxing Gibbous, 97% of the Moon is Illuminated
Aug 13
Waxing Gibbous
Aug 15
Full
Aug 23
Last Quarter
Aug 30
New
Sep 5
First Quarter

Hourly Weather History & Observations

Time (EDT) Temp. Dew Point Humidity Pressure Visibility Wind Dir Wind Speed Gust Speed Precip Events Conditions
12:17 AM 66.4 °F 64.0 °F 92% 29.83 in 10.0 mi Calm Calm - N/A   Clear
12:35 AM 66.2 °F 63.9 °F 92% 29.83 in 10.0 mi NNE 4.6 mph - N/A   Clear
12:55 AM 66.2 °F 63.1 °F 90% 29.83 in 10.0 mi NE 3.5 mph - N/A   Clear
12:56 AM 66.2 °F 63.1 °F 90% 29.83 in 10.0 mi NE 3.5 mph - N/A   Clear
1:15 AM 65.7 °F 62.2 °F 89% 29.83 in 10.0 mi Calm Calm - N/A   Clear
1:20 AM 65.7 °F 61.9 °F 88% 29.83 in 10.0 mi Calm Calm - N/A   Clear
1:38 AM 64.8 °F 61.2 °F 88% 29.83 in 10.0 mi Calm Calm - N/A   Clear
1:56 AM 63.7 °F 61.2 °F 91% 29.83 in 10.0 mi Calm Calm - N/A   Clear
2:15 AM 62.4 °F 61.0 °F 95% 29.83 in 10.0 mi Calm Calm - N/A   Clear
2:35 AM 63.3 °F 60.1 °F 89% 29.83 in 10.0 mi Calm Calm - N/A   Clear
2:36 AM 63.3 °F 60.1 °F 89% 29.83 in 10.0 mi Calm Calm - N/A   Clear
2:58 AM 63.1 °F 59.0 °F 86% 29.83 in 10.0 mi Calm Calm - N/A   Clear
3:17 AM 61.5 °F 59.2 °F 92% 29.82 in 10.0 mi Calm Calm - N/A   Clear
3:35 AM 61.5 °F 58.6 °F 90% 29.82 in 10.0 mi NNE 3.5 mph - N/A   Clear
3:55 AM 61.9 °F 58.3 °F 88% 29.82 in 10.0 mi Calm Calm - N/A   Clear
3:56 AM 61.7 °F 58.1 °F 88% 29.82 in 10.0 mi Calm Calm - N/A   Clear
4:15 AM 61.2 °F 58.3 °F 90% 29.82 in 10.0 mi Calm Calm - N/A   Clear
4:20 AM 61.9 °F 58.1 °F 87% 29.82 in 10.0 mi Calm Calm - N/A   Clear
4:38 AM 62.2 °F 58.1 °F 86% 29.82 in 10.0 mi NE 3.5 mph - N/A   Clear
4:56 AM 62.8 °F 58.6 °F 86% 29.82 in 10.0 mi NE 3.5 mph - N/A   Clear
5:15 AM 61.9 °F 58.5 °F 89% 29.82 in 10.0 mi Calm Calm - N/A   Clear
5:35 AM 61.7 °F 58.3 °F 89% 29.82 in 10.0 mi Calm Calm - N/A   Clear
5:36 AM 61.7 °F 58.3 °F 89% 29.82 in 10.0 mi ENE 3.5 mph - N/A   Clear
5:59 AM 61.3 °F 58.5 °F 90% 29.82 in 10.0 mi ENE 3.5 mph - N/A   Clear
6:17 AM 61.5 °F 58.3 °F 89% 29.82 in 10.0 mi ENE 3.5 mph - N/A   Clear
6:35 AM 60.3 °F 58.1 °F 93% 29.83 in 10.0 mi Calm Calm - N/A   Clear
6:55 AM 61.0 °F 58.5 °F 91% 29.84 in 10.0 mi Calm Calm - N/A   Clear
7:15 AM 61.2 °F 57.7 °F 88% 29.84 in 10.0 mi Calm Calm - N/A   Clear
7:20 AM 61.5 °F 57.7 °F 87% 29.84 in 10.0 mi ENE 3.5 mph - N/A   Clear
7:38 AM 61.7 °F 58.1 °F 88% 29.85 in 10.0 mi Calm Calm - N/A   Clear
7:56 AM 62.6 °F 58.1 °F 85% 29.84 in 10.0 mi ENE 4.6 mph - N/A   Clear
8:15 AM 63.9 °F 57.0 °F 78% 29.85 in 10.0 mi ENE 4.6 mph - N/A   Clear
8:16 AM 63.9 °F 57.0 °F 78% 29.85 in 10.0 mi ENE 3.5 mph - N/A   Clear
8:35 AM 64.4 °F 56.5 °F 75% 29.85 in 10.0 mi ENE 4.6 mph - N/A   Clear
8:59 AM 65.3 °F 56.7 °F 74% 29.86 in 10.0 mi ENE 3.5 mph - N/A   Clear
9:17 AM 65.8 °F 55.4 °F 69% 29.86 in 10.0 mi Calm Calm - N/A   Clear
9:35 AM 66.4 °F 55.2 °F 67% 29.86 in 10.0 mi ENE 3.5 mph - N/A   Clear
9:55 AM 68.0 °F 54.7 °F 62% 29.86 in 10.0 mi ENE 5.8 mph - N/A   Scattered Clouds
10:15 AM 69.6 °F 53.8 °F 57% 29.86 in 10.0 mi NE 4.6 mph - N/A   Clear
10:20 AM 70.0 °F 52.9 °F 55% 29.86 in 10.0 mi ENE 4.6 mph - N/A   Clear
10:38 AM 72.1 °F 50.5 °F 46% 29.87 in 10.0 mi NE 3.5 mph - N/A   Clear
10:56 AM 72.0 °F 49.5 °F 45% 29.87 in 10.0 mi ENE 3.5 mph - N/A   Clear
11:15 AM 72.5 °F 47.1 °F 40% 29.87 in 10.0 mi ENE 5.8 mph - N/A   Clear
11:35 AM 73.8 °F 48.9 °F 41% 29.87 in 10.0 mi ENE 3.5 mph - N/A   Clear
11:59 AM 74.1 °F 49.5 °F 42% 29.88 in 10.0 mi NE 4.6 mph - N/A   Clear
12:17 PM 76.1 °F 51.1 °F 41% 29.88 in 10.0 mi NE 3.5 mph - N/A   Clear
12:35 PM 76.3 °F 50.9 °F 41% 29.88 in 10.0 mi Calm Calm - N/A   Scattered Clouds
12:36 PM 76.3 °F 51.4 °F 42% 29.88 in 10.0 mi North 3.5 mph - N/A   Scattered Clouds
12:55 PM 77.2 °F 52.5 °F 42% 29.88 in 10.0 mi North 5.8 mph - N/A   Scattered Clouds
12:56 PM 77.0 °F 52.0 °F 42% 29.88 in 10.0 mi North 5.8 mph - N/A   Scattered Clouds
1:15 PM 77.4 °F 51.1 °F 40% 29.87 in 10.0 mi North 8.1 mph - N/A   Clear
1:20 PM 77.5 °F 51.6 °F 40% 29.87 in 10.0 mi North 3.5 mph - N/A   Clear
1:38 PM 78.1 °F 53.2 °F 42% 29.87 in 10.0 mi North 8.1 mph - N/A   Clear
1:56 PM 77.9 °F 52.3 °F 41% 29.87 in 10.0 mi NE 5.8 mph - N/A   Clear
2:15 PM 78.6 °F 56.1 °F 46% 29.87 in 10.0 mi NNW 5.8 mph - N/A   Clear
2:16 PM 78.6 °F 56.3 °F 46% 29.87 in 10.0 mi NNW 4.6 mph - N/A   Clear
2:35 PM 79.0 °F 57.0 °F 47% 29.87 in 10.0 mi North 5.8 mph - N/A   Clear
2:59 PM 78.3 °F 59.0 °F 51% 29.87 in 10.0 mi NNW 9.2 mph - N/A   Clear
3:17 PM 76.8 °F 59.7 °F 55% 29.87 in 10.0 mi NNW 11.5 mph 17.3 mph N/A   Clear
3:35 PM 76.1 °F 61.2 °F 60% 29.86 in 10.0 mi NNW 8.1 mph - N/A   Clear
3:55 PM 76.1 °F 61.0 °F 59% 29.86 in 10.0 mi North 9.2 mph - N/A   Clear
3:56 PM 76.1 °F 61.0 °F 59% 29.86 in 10.0 mi North 10.4 mph - N/A   Clear
4:15 PM 75.4 °F 61.5 °F 62% 29.87 in 10.0 mi NNW 12.7 mph - N/A   Clear
4:20 PM 75.2 °F 61.2 °F 62% 29.87 in 10.0 mi North 11.5 mph - N/A   Clear
4:38 PM 74.5 °F 61.0 °F 63% 29.87 in 10.0 mi NNW 8.1 mph - N/A   Clear
4:56 PM 73.9 °F 59.9 °F 61% 29.87 in 10.0 mi North 8.1 mph - N/A   Scattered Clouds
5:15 PM 73.4 °F 61.0 °F 65% 29.87 in 10.0 mi North 5.8 mph - N/A   Mostly Cloudy
5:16 PM 73.6 °F 61.0 °F 65% 29.87 in 10.0 mi North 5.8 mph - N/A   Mostly Cloudy
5:35 PM 74.7 °F 60.3 °F 61% 29.87 in 10.0 mi North 8.1 mph - N/A   Overcast
5:59 PM 75.6 °F 60.1 °F 59% 29.87 in 10.0 mi North 5.8 mph - N/A   Mostly Cloudy
6:17 PM 75.7 °F 59.2 °F 56% 29.87 in 10.0 mi North 5.8 mph - N/A   Scattered Clouds
6:35 PM 75.2 °F 61.9 °F 63% 29.88 in 10.0 mi NNW 6.9 mph - N/A   Scattered Clouds
6:55 PM 72.7 °F 62.6 °F 71% 29.87 in 10.0 mi North 5.8 mph - N/A   Mostly Cloudy
7:15 PM 72.5 °F 62.8 °F 71% 29.88 in 10.0 mi Calm Calm - N/A   Overcast
7:38 PM 72.5 °F 62.1 °F 70% 29.88 in 10.0 mi Calm Calm - N/A   Overcast
7:56 PM 71.6 °F 59.9 °F 66% 29.88 in 10.0 mi Calm Calm - N/A   Mostly Cloudy
8:15 PM 71.6 °F 57.9 °F 62% 29.89 in 10.0 mi Calm Calm - N/A   Overcast
8:35 PM 70.5 °F 57.4 °F 63% 29.89 in 10.0 mi Calm Calm - N/A   Overcast
8:59 PM 69.3 °F 57.6 °F 66% 29.90 in 10.0 mi Calm Calm - N/A   Overcast
9:17 PM 68.9 °F 57.7 °F 68% 29.90 in 10.0 mi Calm Calm - N/A   Overcast
9:35 PM 68.9 °F 57.7 °F 68% 29.90 in 10.0 mi NNE 3.5 mph - N/A   Overcast
9:36 PM 68.9 °F 57.7 °F 68% 29.90 in 10.0 mi NNE 3.5 mph - N/A   Overcast
9:55 PM 68.7 °F 57.6 °F 67% 29.91 in 10.0 mi NNE 3.5 mph - N/A   Overcast
10:15 PM 68.5 °F 57.9 °F 69% 29.91 in 10.0 mi NNE 4.6 mph - N/A   Overcast
10:38 PM 68.0 °F 58.5 °F 71% 29.92 in 10.0 mi Calm Calm - N/A   Overcast
10:56 PM 67.8 °F 58.3 °F 71% 29.92 in 10.0 mi NNE 3.5 mph - N/A   Overcast
11:15 PM 67.5 °F 58.3 °F 72% 29.92 in 10.0 mi Calm Calm - N/A   Overcast
11:16 PM 67.5 °F 58.3 °F 72% 29.92 in 10.0 mi Calm Calm - N/A   Overcast
11:35 PM 67.1 °F 58.3 °F 73% 29.92 in 10.0 mi North 3.5 mph - N/A   Overcast
11:59 PM 66.7 °F 58.5 °F 75% 29.92 in 10.0 mi NE 3.5 mph - N/A   Overcast